createdAt,value
2022-08-31T00:00:59.058Z,3.75
2022-08-31T00:06:03.576Z,3.83
2022-08-31T00:11:10.214Z,3.40
2022-08-31T00:16:13.702Z,4.05
2022-08-31T00:21:16.601Z,3.30
2022-08-31T00:26:21.241Z,3.45
2022-08-31T00:31:24.456Z,3.63
2022-08-31T00:36:28.080Z,3.55
2022-08-31T00:41:35.438Z,4.50
2022-08-31T00:46:40.820Z,3.58
2022-08-31T00:51:49.462Z,3.40
2022-08-31T00:56:54.505Z,3.60
2022-08-31T01:01:57.233Z,3.30
2022-08-31T01:07:00.394Z,3.40
2022-08-31T01:12:07.887Z,3.05
2022-08-31T01:17:10.798Z,3.38
2022-08-31T01:22:20.209Z,3.42
2022-08-31T01:27:28.909Z,3.30
2022-08-31T01:32:31.414Z,3.50
2022-08-31T01:37:34.273Z,3.53
2022-08-31T01:42:40.297Z,3.38
2022-08-31T01:47:42.783Z,3.38
2022-08-31T01:52:45.233Z,3.22
2022-08-31T01:57:49.274Z,3.00
2022-08-31T02:02:51.970Z,2.90
2022-08-31T02:07:54.765Z,2.90
2022-08-31T02:12:58.724Z,3.58
2022-08-31T02:18:01.402Z,2.92
2022-08-31T02:28:12.699Z,2.80
2022-08-31T02:33:15.641Z,3.20
2022-08-31T02:38:18.580Z,3.72
2022-08-31T02:43:24.684Z,2.90
2022-08-31T02:48:27.553Z,2.95
2022-08-31T02:53:30.105Z,3.10
2022-08-31T02:58:33.934Z,3.30
2022-08-31T03:03:37.814Z,3.10
2022-08-31T03:08:42.284Z,3.28
2022-08-31T03:13:46.546Z,3.20
2022-08-31T03:18:49.505Z,3.13
2022-08-31T03:23:52.010Z,3.03
2022-08-31T03:28:56.259Z,3.22
2022-08-31T03:33:59.157Z,2.78
2022-08-31T03:39:01.676Z,3.25
2022-08-31T03:44:06.247Z,3.25
2022-08-31T03:49:10.277Z,3.10
2022-08-31T03:54:13.152Z,3.58
2022-08-31T03:59:17.400Z,2.92
2022-08-31T04:04:19.919Z,3.10
2022-08-31T04:09:22.433Z,3.05
2022-08-31T04:14:26.286Z,3.38
2022-08-31T04:19:31.296Z,4.97
2022-08-31T04:24:34.250Z,3.28
2022-08-31T04:29:38.109Z,2.78
2022-08-31T04:34:40.604Z,2.78
2022-08-31T04:39:51.013Z,3.05
2022-08-31T04:44:56.413Z,2.70
2022-08-31T04:49:58.854Z,2.92
2022-08-31T04:55:01.375Z,3.00
2022-08-31T05:00:07.431Z,3.28
2022-08-31T05:05:10.649Z,3.15
2022-08-31T05:10:13.330Z,2.92
2022-08-31T05:15:18.234Z,3.60
2022-08-31T05:20:20.764Z,3.53
2022-08-31T05:25:23.444Z,3.08
2022-08-31T05:30:28.435Z,3.25
2022-08-31T05:35:31.306Z,3.28
2022-08-31T05:40:33.873Z,3.03
2022-08-31T05:45:37.796Z,3.20
2022-08-31T05:50:40.292Z,2.90
2022-08-31T05:55:43.191Z,3.33
2022-08-31T06:00:47.178Z,3.20
2022-08-31T06:05:50.548Z,2.70
2022-08-31T06:10:53.011Z,3.33
2022-08-31T06:15:59.221Z,3.08
2022-08-31T06:21:03.151Z,2.97
2022-08-31T06:26:08.180Z,2.63
2022-08-31T06:31:16.267Z,2.83
2022-08-31T06:36:22.254Z,2.30
2022-08-31T06:41:27.308Z,2.13
2022-08-31T06:46:34.495Z,2.70
2022-08-31T06:51:38.340Z,2.70
2022-08-31T06:56:41.321Z,2.55
2022-08-31T07:01:45.254Z,2.88
2022-08-31T07:06:47.812Z,2.45
2022-08-31T07:11:52.210Z,2.03
2022-08-31T07:16:58.099Z,2.03
2022-08-31T07:22:02.740Z,2.50
2022-08-31T07:27:10.050Z,2.22
2022-08-31T07:32:17.438Z,2.30
2022-08-31T07:37:37.375Z,1.77
2022-08-31T07:42:43.471Z,2.08
2022-08-31T07:47:48.025Z,2.20
2022-08-31T07:52:54.472Z,2.00
2022-08-31T07:57:57.750Z,2.15
2022-08-31T08:03:07.380Z,2.28
2022-08-31T08:08:13.890Z,2.22
2022-08-31T08:13:19.311Z,2.10
2022-08-31T08:18:26.387Z,2.20
2022-08-31T08:23:29.191Z,2.70
2022-08-31T08:28:40.828Z,2.20
2022-08-31T08:33:46.456Z,2.08
2022-08-31T08:38:51.744Z,2.80
2022-08-31T08:43:57.365Z,1.95
2022-08-31T08:49:09.435Z,1.73
2022-08-31T08:54:15.850Z,2.30
2022-08-31T08:59:20.368Z,2.05
2022-08-31T09:04:41.406Z,2.50
2022-08-31T09:09:54.008Z,2.10
2022-08-31T09:15:18.931Z,2.20
2022-08-31T09:20:24.162Z,1.92
2022-08-31T09:25:33.382Z,2.00
2022-08-31T09:30:41.508Z,2.00
2022-08-31T09:35:45.641Z,1.65
2022-08-31T09:40:51.960Z,1.73
2022-08-31T09:45:59.041Z,1.50
2022-08-31T09:51:04.634Z,2.22
2022-08-31T09:56:17.060Z,1.60
2022-08-31T10:01:23.462Z,2.58
2022-08-31T10:06:46.513Z,1.77
2022-08-31T10:11:51.938Z,1.50
2022-08-31T10:17:02.602Z,1.50
2022-08-31T10:22:12.653Z,1.63
2022-08-31T10:27:21.268Z,1.63
2022-08-31T10:32:31.404Z,1.55
2022-08-31T10:37:44.745Z,1.40
2022-08-31T10:42:59.441Z,1.67
2022-08-31T10:48:05.259Z,1.73
2022-08-31T10:53:22.419Z,1.50
2022-08-31T10:58:36.521Z,1.23
2022-08-31T11:04:01.733Z,1.27
2022-08-31T11:09:13.070Z,1.30
2022-08-31T11:14:45.327Z,1.63
2022-08-31T11:20:23.908Z,1.30
2022-08-31T11:25:58.535Z,1.95
2022-08-31T11:31:07.325Z,1.35
2022-08-31T11:36:10.278Z,1.52
2022-08-31T11:41:34.295Z,1.40
2022-08-31T11:47:05.186Z,1.60
2022-08-31T11:52:29.446Z,1.40
2022-08-31T11:57:59.519Z,1.40
2022-08-31T12:03:09.802Z,2.97
2022-08-31T12:08:15.336Z,1.40
2022-08-31T12:13:45.844Z,1.90
2022-08-31T12:19:08.205Z,1.50
2022-08-31T12:24:25.858Z,1.27
2022-08-31T12:29:32.067Z,1.38
2022-08-31T12:34:38.711Z,1.05
2022-08-31T12:39:41.172Z,1.05
2022-08-31T12:44:51.829Z,1.17
2022-08-31T12:50:09.205Z,1.65
2022-08-31T12:55:23.527Z,2.10
2022-08-31T13:00:30.706Z,1.58
2022-08-31T13:05:35.607Z,1.58
2022-08-31T13:10:39.821Z,1.15
2022-08-31T13:15:45.184Z,1.00
2022-08-31T13:20:48.494Z,1.10
2022-08-31T13:26:01.175Z,2.00
2022-08-31T13:31:09.211Z,1.27
2022-08-31T13:36:32.252Z,1.23
2022-08-31T13:41:38.145Z,1.42
2022-08-31T13:46:51.052Z,1.20
2022-08-31T13:51:53.998Z,0.93
2022-08-31T13:56:57.650Z,1.27
2022-08-31T14:02:05.298Z,0.90
2022-08-31T14:07:08.267Z,0.93
2022-08-31T14:12:10.890Z,1.20
2022-08-31T14:17:16.597Z,1.30
2022-08-31T14:22:29.719Z,1.58
2022-08-31T14:27:34.462Z,4.13
2022-08-31T14:32:38.499Z,1.20
2022-08-31T14:37:42.235Z,0.85
2022-08-31T14:42:45.313Z,0.80
2022-08-31T14:47:52.429Z,1.07
2022-08-31T14:52:55.628Z,1.30
2022-08-31T14:58:02.792Z,1.08
2022-08-31T15:03:08.230Z,0.90
2022-08-31T15:08:11.692Z,1.00
2022-08-31T15:13:14.379Z,0.98
2022-08-31T15:18:24.335Z,0.98
2022-08-31T15:23:28.522Z,1.15
2022-08-31T15:28:31.574Z,1.08
2022-08-31T15:33:36.991Z,1.20
2022-08-31T15:38:41.232Z,1.08
2022-08-31T15:43:47.356Z,1.00
2022-08-31T15:48:51.649Z,0.80
2022-08-31T15:54:20.729Z,0.90
2022-08-31T15:59:22.980Z,1.23
2022-08-31T16:04:27.065Z,0.80
2022-08-31T16:09:29.929Z,1.10
2022-08-31T16:14:33.454Z,0.90
2022-08-31T16:19:43.043Z,0.88
2022-08-31T16:24:47.163Z,0.80
2022-08-31T16:29:51.765Z,0.75
2022-08-31T16:34:56.821Z,1.17
2022-08-31T16:39:59.629Z,0.80
2022-08-31T16:45:03.009Z,0.73
2022-08-31T16:50:10.354Z,0.65
2022-08-31T16:55:16.153Z,0.88
2022-08-31T17:00:19.540Z,0.82
2022-08-31T17:05:35.287Z,0.77
2022-08-31T17:10:38.940Z,0.80
2022-08-31T17:15:41.652Z,0.60
2022-08-31T17:20:48.272Z,0.52
2022-08-31T17:30:57.491Z,0.70
2022-08-31T17:36:02.268Z,0.93
2022-08-31T17:41:06.553Z,0.70
2022-08-31T17:46:12.589Z,0.80
2022-08-31T17:51:27.200Z,0.93
2022-08-31T17:56:34.903Z,0.90
2022-08-31T18:01:38.439Z,1.65
2022-08-31T18:06:46.854Z,2.00
2022-08-31T18:11:49.888Z,2.10
2022-08-31T18:16:54.908Z,1.38
2022-08-31T18:21:59.837Z,1.40
2022-08-31T18:27:03.971Z,1.00
2022-08-31T18:32:10.924Z,0.70
2022-08-31T18:37:16.481Z,0.90
2022-08-31T18:42:42.929Z,0.90
2022-08-31T18:48:07.136Z,0.88
2022-08-31T18:53:15.100Z,1.02
2022-08-31T18:58:18.456Z,1.23
2022-08-31T19:03:21.472Z,1.50
2022-08-31T19:08:26.430Z,1.27
2022-08-31T19:13:31.323Z,1.40
2022-08-31T19:18:37.209Z,1.00
2022-08-31T19:23:43.461Z,0.90
2022-08-31T19:28:48.945Z,0.98
2022-08-31T19:33:57.113Z,1.02
2022-08-31T19:39:01.628Z,1.42
2022-08-31T19:44:08.771Z,0.93
2022-08-31T19:49:17.336Z,0.93
2022-08-31T19:54:26.139Z,1.20
2022-08-31T19:59:30.168Z,0.90
2022-08-31T20:09:40.491Z,1.50
2022-08-31T20:14:44.698Z,1.00
2022-08-31T20:19:50.012Z,1.17
2022-08-31T20:24:55.658Z,0.95
2022-08-31T20:29:58.542Z,0.95
2022-08-31T20:35:02.376Z,1.20
2022-08-31T20:40:16.034Z,1.10
2022-08-31T20:45:18.821Z,0.88
2022-08-31T20:50:21.346Z,0.90
2022-08-31T20:55:26.961Z,1.25
2022-08-31T21:00:30.261Z,1.20
2022-08-31T21:05:38.915Z,1.10
2022-08-31T21:10:43.666Z,2.15
2022-08-31T21:15:47.608Z,1.15
2022-08-31T21:20:51.541Z,1.25
2022-08-31T21:25:57.391Z,1.05
2022-08-31T21:31:18.391Z,1.02
2022-08-31T21:36:32.858Z,1.05
2022-08-31T21:41:38.123Z,1.10
2022-08-31T21:46:41.678Z,1.20
2022-08-31T21:51:48.617Z,0.80
2022-08-31T21:56:55.610Z,1.20
2022-08-31T22:02:00.434Z,1.30
2022-08-31T22:07:03.565Z,0.90
2022-08-31T22:12:09.737Z,1.13
2022-08-31T22:17:13.057Z,1.17
2022-08-31T22:22:18.017Z,1.20
2022-08-31T22:27:22.033Z,1.00
2022-08-31T22:37:35.874Z,1.10
2022-08-31T22:42:50.116Z,1.10
2022-08-31T22:48:02.615Z,1.20
2022-08-31T22:53:38.103Z,0.93
2022-08-31T22:59:00.861Z,0.90
2022-08-31T23:09:40.796Z,1.10
2022-08-31T23:14:52.897Z,0.93
2022-08-31T23:20:03.360Z,1.00
2022-08-31T23:25:16.649Z,1.52
2022-08-31T23:30:29.890Z,1.40
2022-08-31T23:35:43.623Z,1.00
2022-08-31T23:40:53.568Z,1.10
2022-08-31T23:46:02.908Z,1.23
2022-08-31T23:51:10.395Z,1.25
2022-08-31T23:56:14.493Z,0.90
